White Sulphur Springs, New York
Current Conditions -  °F | °C
As of 9:15 PM on Thursday 20 Nov 2014 (Local Time) from KMSV Reporting Station
Clear Clear  
Wind Chill: -10°   Ceiling: Unl
Heat Index: -4°   Visibility: 10mi
Dew Point: -14°   Wind: 10mph
Humidity: 46%   Direction: 270°W
Pressure: 29.91"   Gusts: 20mph
Location:  41.8°N, 74.83°W
Report Text: KMSV 210215Z AUTO 27009G17KT 10SM CLR M04/M14 A2991 RMK AO1
Loading
Personal Weather Stations






























Interactive Weather Map New forecast layout! Learn more

10-Day Weather Forecast

Advertisements
Track Severe Weather on mobile